Penndel, Pennsylvania
Current Conditions -  °F | °C
As of 11:54 AM on Saturday 25 Oct 2014 (Local Time) from KPNE Reporting Station
Clear Clear  
Wind Chill: 66°   Ceiling: Unl
Heat Index: 66°   Visibility: 10mi
Dew Point: 41°   Wind: 13mph
Humidity: 40%   Direction: 280°W
Pressure: 29.87"   Gusts: NA
Location:  40.1816°N, 74.9144°W
Report Text: KPNE 251554Z 28011KT 10SM CLR 19/05 A2987 RMK AO2 SLP113 T01890050
Loading
Personal Weather Stations






























Interactive Weather Map
Tropical Storm Tracking
New forecast layout! Learn more

10-Day Weather Forecast

Advertisements
Track Severe Weather on mobile